Time;durP1;ratioP1;P1;durP2;ratioP2;P2;SDS_P1;SDS_P2;PMS_P1;PMS_P2;Temp;Humidity;BMP_temperature;BMP_pressure;BME280_temperature;BME280_humidity;BME280_pressure;Samples;Min_cycle;Max_cycle;Signal;HPM_P1;HPM_P2
2021/05/19 00:02:18;;;;;;;10.93;6.17;;;13.20;81.50;;;;;;5095790;28;20451;-70
2021/05/19 00:04:45;;;;;;;6.03;5.53;;;13.20;81.40;;;;;;5095403;28;20470;-70
2021/05/19 00:07:11;;;;;;;7.30;5.53;;;13.20;81.40;;;;;;5095605;28;20459;-70
2021/05/19 00:09:37;;;;;;;5.97;5.43;;;13.20;81.70;;;;;;5094344;28;20432;-70
2021/05/19 00:12:05;;;;;;;5.77;5.27;;;13.30;82.20;;;;;;5095652;28;20448;-70
2021/05/19 00:14:31;;;;;;;5.23;4.80;;;13.30;82.30;;;;;;5095405;28;20467;-70
2021/05/19 00:16:57;;;;;;;8.03;6.10;;;13.30;82.20;;;;;;5095104;28;20456;-70
2021/05/19 00:19:24;;;;;;;6.73;6.13;;;13.30;82.30;;;;;;5095231;28;20959;-70
2021/05/19 00:21:50;;;;;;;7.73;6.40;;;13.30;82.20;;;;;;5095409;28;20443;-70
2021/05/19 00:24:17;;;;;;;9.63;6.80;;;13.30;81.90;;;;;;5095320;28;20499;-70
2021/05/19 00:26:43;;;;;;;6.47;5.27;;;13.30;82.10;;;;;;5095356;28;20439;-70
2021/05/19 00:29:12;;;;;;;7.60;6.80;;;13.40;82.40;;;;;;5095467;28;20475;-70
2021/05/19 00:31:41;;;;;;;7.23;6.23;;;13.40;82.40;;;;;;5094930;28;20592;-70
2021/05/19 00:34:08;;;;;;;8.43;7.60;;;13.40;82.20;;;;;;5095151;28;20828;-70
2021/05/19 00:36:34;;;;;;;7.87;7.07;;;13.40;82.10;;;;;;5095168;28;20443;-70
2021/05/19 00:39:00;;;;;;;12.33;8.10;;;13.40;82.10;;;;;;5095256;28;20442;-70
2021/05/19 00:41:26;;;;;;;9.10;8.03;;;13.40;82.10;;;;;;5095244;28;20458;-70
2021/05/19 00:44:02;;;;;;;8.13;7.43;;;13.30;82.40;;;;;;5095248;28;20464;-70
2021/05/19 00:46:29;;;;;;;8.53;7.53;;;13.30;82.40;;;;;;5094745;28;20431;-70
2021/05/19 00:48:55;;;;;;;9.63;8.80;;;13.30;82.90;;;;;;5094835;28;20483;-70
2021/05/19 00:51:21;;;;;;;8.40;7.60;;;13.30;83.30;;;;;;5094909;28;20806;-70
2021/05/19 00:53:47;;;;;;;8.63;7.73;;;13.20;82.80;;;;;;5094767;28;20841;-70
2021/05/19 00:56:14;;;;;;;10.10;7.93;;;13.20;82.90;;;;;;5094459;28;20447;-70
2021/05/19 00:58:42;;;;;;;10.53;9.07;;;13.10;83.10;;;;;;5094770;28;20439;-70
2021/05/19 01:01:08;;;;;;;10.20;8.20;;;13.00;83.20;;;;;;5094827;28;20501;-70
2021/05/19 01:03:37;;;;;;;14.47;8.13;;;13.00;83.40;;;;;;5094993;28;20464;-70
2021/05/19 01:06:06;;;;;;;9.83;8.77;;;12.90;83.20;;;;;;5094743;28;20447;-70
2021/05/19 01:11:17;;;;;;;13.10;9.07;;;12.80;83.90;;;;;;5094689;28;20431;-70
2021/05/19 01:13:45;;;;;;;9.77;8.80;;;12.80;84.80;;;;;;5094432;28;20472;-70
2021/05/19 01:16:12;;;;;;;10.20;8.70;;;12.70;85.00;;;;;;5094484;28;20881;-70
2021/05/19 01:18:40;;;;;;;10.27;9.37;;;12.70;85.50;;;;;;5094461;28;20467;-70
2021/05/19 01:21:07;;;;;;;11.20;10.27;;;12.70;85.60;;;;;;5093996;28;20455;-70
2021/05/19 01:23:36;;;;;;;9.53;8.60;;;12.60;85.40;;;;;;5094020;28;20973;-70
2021/05/19 01:26:08;;;;;;;9.07;8.27;;;12.60;85.30;;;;;;5094272;28;20466;-70
2021/05/19 01:28:34;;;;;;;10.57;9.20;;;12.60;85.90;;;;;;5094265;28;20468;-70
2021/05/19 01:31:01;;;;;;;9.80;8.97;;;12.60;85.90;;;;;;5094280;28;20526;-70
2021/05/19 01:33:27;;;;;;;9.40;8.50;;;12.40;85.80;;;;;;5094074;28;20471;-70
2021/05/19 01:35:53;;;;;;;10.40;9.50;;;12.40;86.00;;;;;;5094224;28;20447;-70
2021/05/19 01:38:19;;;;;;;10.17;9.27;;;12.40;86.20;;;;;;5094246;28;20448;-70
2021/05/19 01:40:47;;;;;;;9.80;8.90;;;12.30;86.40;;;;;;5093933;28;20456;-70
2021/05/19 01:43:14;;;;;;;10.37;8.87;;;12.30;86.40;;;;;;5094233;28;20447;-70
2021/05/19 01:45:40;;;;;;;10.50;8.53;;;12.20;86.20;;;;;;5093940;28;20493;-70
2021/05/19 01:48:13;;;;;;;9.20;8.40;;;12.10;86.50;;;;;;5093515;28;21000;-70
2021/05/19 01:50:42;;;;;;;9.13;8.43;;;12.10;87.10;;;;;;5093593;28;20431;-70
2021/05/19 01:53:09;;;;;;;9.23;8.43;;;12.10;87.50;;;;;;5093729;28;20452;-70
2021/05/19 01:55:35;;;;;;;9.90;8.90;;;12.10;87.90;;;;;;5093766;28;20444;-70
2021/05/19 01:58:02;;;;;;;9.10;8.40;;;12.00;87.20;;;;;;5093711;28;20443;-70
2021/05/19 02:00:29;;;;;;;9.20;8.47;;;12.00;87.50;;;;;;5093335;28;21009;-70
2021/05/19 02:02:57;;;;;;;9.97;9.17;;;12.00;87.50;;;;;;5093687;28;20444;-70
2021/05/19 02:05:25;;;;;;;9.30;8.53;;;12.10;87.90;;;;;;5093361;28;20973;-70
2021/05/19 02:07:51;;;;;;;9.20;8.50;;;12.10;87.60;;;;;;5093556;28;20494;-70
2021/05/19 02:10:18;;;;;;;8.70;7.90;;;12.10;87.10;;;;;;5093591;28;20459;-70
2021/05/19 02:12:44;;;;;;;10.00;9.00;;;12.10;87.00;;;;;;5093601;28;20444;-70
2021/05/19 02:15:13;;;;;;;8.63;7.93;;;12.00;87.00;;;;;;5093079;28;20864;-70
2021/05/19 02:17:39;;;;;;;9.97;9.07;;;12.00;87.10;;;;;;5093596;28;20497;-70
2021/05/19 02:20:07;;;;;;;9.67;8.80;;;12.00;87.10;;;;;;5093550;28;20463;-70
2021/05/19 02:22:34;;;;;;;10.23;9.33;;;11.90;87.30;;;;;;5093217;28;20827;-70
2021/05/19 02:25:00;;;;;;;11.70;10.57;;;11.80;87.50;;;;;;5093349;28;20476;-70
2021/05/19 02:27:26;;;;;;;13.73;10.00;;;11.80;87.90;;;;;;5093413;28;20447;-70
2021/05/19 02:29:54;;;;;;;12.40;11.30;;;11.70;87.80;;;;;;5093533;28;20443;-70
2021/05/19 02:32:21;;;;;;;13.27;11.57;;;11.60;88.30;;;;;;5093909;28;20815;-70
2021/05/19 02:34:47;;;;;;;11.90;10.90;;;11.70;88.80;;;;;;5097248;28;20533;-70
2021/05/19 02:37:13;;;;;;;12.57;11.40;;;11.60;88.70;;;;;;5097332;28;20972;-70
2021/05/19 02:39:40;;;;;;;12.63;11.40;;;11.60;89.20;;;;;;5097430;28;20443;-70
2021/05/19 02:42:06;;;;;;;13.00;11.90;;;11.50;88.90;;;;;;5097385;28;20899;-70
2021/05/19 02:44:33;;;;;;;12.63;11.53;;;11.50;89.20;;;;;;5097598;28;20901;-70
2021/05/19 02:46:59;;;;;;;17.60;12.00;;;11.40;89.30;;;;;;5097181;28;20454;-70
2021/05/19 02:49:27;;;;;;;11.87;10.97;;;11.40;89.40;;;;;;5097165;28;20876;-70
2021/05/19 02:51:53;;;;;;;12.83;11.67;;;11.40;89.70;;;;;;5097099;28;20508;-70
2021/05/19 02:54:19;;;;;;;13.30;12.23;;;11.40;89.90;;;;;;5097337;28;20470;-70
2021/05/19 02:56:45;;;;;;;13.83;12.63;;;11.50;90.10;;;;;;5097078;28;20451;-70
2021/05/19 02:59:12;;;;;;;14.60;13.20;;;11.50;90.20;;;;;;5096721;28;20936;-70
2021/05/19 03:01:39;;;;;;;13.83;12.63;;;11.60;90.20;;;;;;5096951;28;20500;-70
2021/05/19 03:04:06;;;;;;;14.70;13.30;;;11.70;90.30;;;;;;5096546;28;20472;-70
2021/05/19 03:06:33;;;;;;;14.23;13.03;;;11.70;90.20;;;;;;5096843;28;20436;-70
2021/05/19 03:09:00;;;;;;;13.00;11.83;;;11.80;90.20;;;;;;5096976;28;20514;-70
2021/05/19 03:11:26;;;;;;;15.20;13.70;;;11.90;90.20;;;;;;5096839;28;20464;-70
2021/05/19 03:13:53;;;;;;;14.80;13.30;;;11.90;90.20;;;;;;5096356;28;20473;-70
2021/05/19 03:16:19;;;;;;;13.50;12.30;;;11.90;90.10;;;;;;5096399;28;20464;-70
2021/05/19 03:18:46;;;;;;;14.27;12.97;;;12.00;90.00;;;;;;5096666;28;20448;-70
2021/05/19 03:21:12;;;;;;;13.90;12.70;;;12.00;89.30;;;;;;5096390;28;20942;-70
2021/05/19 03:23:39;;;;;;;13.80;12.23;;;12.10;89.00;;;;;;5096975;28;20459;-70
2021/05/19 03:26:05;;;;;;;14.77;13.47;;;12.10;88.80;;;;;;5096548;28;20456;-70
2021/05/19 03:28:32;;;;;;;16.87;15.07;;;12.10;88.00;;;;;;5096482;28;20570;-70
2021/05/19 03:30:59;;;;;;;14.40;13.20;;;12.00;87.70;;;;;;5096461;28;20447;-70
2021/05/19 03:33:25;;;;;;;14.63;13.20;;;12.00;87.60;;;;;;5096429;28;20451;-70
2021/05/19 03:35:52;;;;;;;15.40;13.90;;;12.00;87.60;;;;;;5096308;28;20466;-70
2021/05/19 03:38:18;;;;;;;13.83;12.60;;;12.00;87.40;;;;;;5096917;28;20452;-70
2021/05/19 03:40:46;;;;;;;17.47;14.50;;;11.90;87.20;;;;;;5095875;28;20950;-70
2021/05/19 03:43:12;;;;;;;18.70;15.10;;;11.90;87.00;;;;;;5095808;28;20451;-70
2021/05/19 03:45:38;;;;;;;15.00;13.70;;;11.90;86.70;;;;;;5096157;28;20439;-70
2021/05/19 03:48:05;;;;;;;14.93;13.30;;;11.90;86.60;;;;;;5095998;28;20521;-70
2021/05/19 03:50:33;;;;;;;15.37;13.80;;;11.90;86.00;;;;;;5095999;28;20444;-70
2021/05/19 03:53:02;;;;;;;15.00;13.50;;;11.80;86.10;;;;;;5096071;28;20455;-70
2021/05/19 03:55:28;;;;;;;14.80;13.60;;;11.80;86.40;;;;;;5095560;28;21000;-70
2021/05/19 03:57:56;;;;;;;16.00;14.40;;;11.80;86.40;;;;;;5095857;28;20454;-70
2021/05/19 04:00:24;;;;;;;15.80;13.20;;;11.80;86.60;;;;;;5095873;28;20440;-70
2021/05/19 04:02:51;;;;;;;13.10;12.00;;;11.80;86.10;;;;;;5096029;28;20464;-70
2021/05/19 04:05:18;;;;;;;15.50;13.80;;;11.80;86.40;;;;;;5095944;28;20463;-70
2021/05/19 04:07:44;;;;;;;12.90;11.70;;;11.80;86.40;;;;;;5095869;28;20464;-70
2021/05/19 04:10:11;;;;;;;20.30;13.50;;;11.80;86.40;;;;;;5095737;28;20857;-70
2021/05/19 04:12:37;;;;;;;14.13;12.87;;;11.90;86.50;;;;;;5095611;28;20440;-70
2021/05/19 04:15:06;;;;;;;13.83;12.70;;;11.90;85.90;;;;;;5095359;28;20475;-70
2021/05/19 04:17:32;;;;;;;13.03;11.83;;;11.90;86.00;;;;;;5095888;28;20460;-70
2021/05/19 04:19:58;;;;;;;16.53;11.90;;;11.90;86.20;;;;;;5095589;28;20429;-70
2021/05/19 04:22:25;;;;;;;13.50;12.20;;;11.90;86.00;;;;;;5095132;28;20956;-70
2021/05/19 04:24:51;;;;;;;16.63;13.20;;;11.90;86.10;;;;;;5095387;28;20459;-70
2021/05/19 04:27:17;;;;;;;13.90;12.50;;;12.00;86.30;;;;;;5095497;28;20771;-70
2021/05/19 04:29:43;;;;;;;27.10;13.33;;;12.00;86.00;;;;;;5095235;28;20479;-70
2021/05/19 04:32:11;;;;;;;14.90;12.13;;;12.00;86.20;;;;;;5095216;28;20455;-69
2021/05/19 04:34:38;;;;;;;10.33;9.30;;;12.10;86.40;;;;;;5095383;28;20459;-69
2021/05/19 04:37:05;;;;;;;11.10;9.60;;;12.20;85.60;;;;;;5095158;28;20451;-69
2021/05/19 04:39:31;;;;;;;15.00;11.03;;;12.30;85.20;;;;;;5094772;28;20950;-69
2021/05/19 04:41:57;;;;;;;15.23;11.63;;;12.40;84.70;;;;;;5095033;28;20444;-69
2021/05/19 04:44:24;;;;;;;17.10;11.93;;;12.50;84.10;;;;;;5094885;28;20545;-69
2021/05/19 04:46:50;;;;;;;16.93;10.80;;;12.60;84.20;;;;;;5094949;28;20444;-70
2021/05/19 04:49:17;;;;;;;11.63;10.47;;;12.70;82.80;;;;;;5094821;28;20475;-70
2021/05/19 04:51:44;;;;;;;14.63;10.10;;;12.70;82.70;;;;;;5094768;28;20451;-70
2021/05/19 04:54:10;;;;;;;12.80;11.10;;;12.60;83.00;;;;;;5094664;28;20476;-69
2021/05/19 04:56:36;;;;;;;11.23;9.50;;;12.60;83.20;;;;;;5094096;28;20436;-69
2021/05/19 04:59:03;;;;;;;11.67;10.50;;;12.60;83.20;;;;;;5094702;28;20451;-69
2021/05/19 05:01:29;;;;;;;12.10;10.90;;;12.50;83.20;;;;;;5094615;28;20444;-69
2021/05/19 05:03:55;;;;;;;13.67;11.40;;;12.50;83.80;;;;;;5094309;28;21027;-69
2021/05/19 05:06:23;;;;;;;16.63;11.70;;;12.50;84.10;;;;;;5094335;28;20898;-70
2021/05/19 05:08:49;;;;;;;11.73;10.20;;;12.40;84.10;;;;;;5094461;28;20495;-70
2021/05/19 05:11:15;;;;;;;11.73;10.60;;;12.40;84.20;;;;;;5094405;28;20446;-70
2021/05/19 05:13:41;;;;;;;16.03;11.17;;;12.40;84.20;;;;;;5094000;28;21015;-70
2021/05/19 05:16:08;;;;;;;11.67;10.43;;;12.30;84.20;;;;;;5093940;28;20467;-70
2021/05/19 05:18:35;;;;;;;13.10;10.73;;;12.30;84.50;;;;;;5094235;28;20455;-70
2021/05/19 05:21:02;;;;;;;13.27;9.63;;;12.40;84.90;;;;;;5094068;28;20800;-70
2021/05/19 05:23:29;;;;;;;12.73;9.60;;;12.40;84.90;;;;;;5094243;28;20536;-70
2021/05/19 05:25:55;;;;;;;15.80;10.20;;;12.50;85.10;;;;;;5094520;28;20515;-70
2021/05/19 05:28:22;;;;;;;15.60;10.70;;;12.50;85.10;;;;;;5094372;28;20475;-70
2021/05/19 05:30:49;;;;;;;16.53;10.57;;;12.60;85.00;;;;;;5094474;28;20770;-71
2021/05/19 05:33:15;;;;;;;12.57;9.97;;;12.60;84.90;;;;;;5094529;28;20452;-71
2021/05/19 05:35:41;;;;;;;12.00;9.93;;;12.70;85.00;;;;;;5094084;28;20938;-70
2021/05/19 05:38:08;;;;;;;12.77;9.43;;;12.80;85.10;;;;;;5094211;28;20432;-69
2021/05/19 05:40:35;;;;;;;10.80;9.43;;;12.80;83.90;;;;;;5093854;28;20440;-68
2021/05/19 05:43:03;;;;;;;12.10;9.77;;;12.90;83.80;;;;;;5093753;28;20902;-68
2021/05/19 05:45:30;;;;;;;13.47;10.00;;;13.00;84.00;;;;;;5094255;28;20472;-68
2021/05/19 05:47:57;;;;;;;15.77;9.60;;;13.00;83.50;;;;;;5094254;28;21046;-68
2021/05/19 05:50:26;;;;;;;10.47;9.37;;;12.90;83.20;;;;;;5093676;28;20908;-68
2021/05/19 05:52:53;;;;;;;13.47;9.43;;;12.90;83.40;;;;;;5093882;28;20824;-68
2021/05/19 05:55:20;;;;;;;14.27;9.60;;;12.90;83.80;;;;;;5093807;28;20517;-68
2021/05/19 05:57:47;;;;;;;13.80;9.23;;;12.90;83.00;;;;;;5093762;28;20872;-68
2021/05/19 06:00:15;;;;;;;13.33;8.83;;;12.90;83.60;;;;;;5093885;28;20447;-68
2021/05/19 06:02:42;;;;;;;13.50;9.10;;;12.90;83.90;;;;;;5093314;28;20452;-68
2021/05/19 06:05:10;;;;;;;14.80;9.10;;;12.80;83.60;;;;;;5094006;28;20460;-68
2021/05/19 06:07:36;;;;;;;17.13;9.03;;;12.80;83.90;;;;;;5093676;28;20448;-68
2021/05/19 06:10:03;;;;;;;14.43;8.73;;;12.80;84.30;;;;;;5093906;28;20451;-68
2021/05/19 06:12:29;;;;;;;15.90;9.00;;;12.90;84.80;;;;;;5093821;28;20514;-68
2021/05/19 06:14:56;;;;;;;16.67;9.80;;;12.90;84.70;;;;;;5093493;28;20475;-69
2021/05/19 06:17:23;;;;;;;14.73;8.97;;;12.90;85.10;;;;;;5093284;28;20405;-68
2021/05/19 06:19:50;;;;;;;15.27;8.27;;;12.90;84.10;;;;;;5093575;28;20420;-68
2021/05/19 06:22:16;;;;;;;11.17;7.70;;;12.90;84.40;;;;;;5093556;28;20424;-68
2021/05/19 06:24:43;;;;;;;9.73;7.80;;;12.90;85.50;;;;;;5093082;28;20513;-68
2021/05/19 06:27:09;;;;;;;10.13;7.67;;;13.10;85.30;;;;;;5093527;28;20510;-68
2021/05/19 06:29:35;;;;;;;13.40;6.80;;;13.10;83.90;;;;;;5093093;28;20985;-68
2021/05/19 06:32:03;;;;;;;14.17;7.47;;;13.00;82.50;;;;;;5093129;28;20456;-68
2021/05/19 06:34:29;;;;;;;11.97;6.40;;;13.00;84.00;;;;;;5093334;28;20464;-68
2021/05/19 06:36:55;;;;;;;10.47;6.73;;;13.00;84.30;;;;;;5093374;28;20546;-68
2021/05/19 06:39:23;;;;;;;17.47;7.90;;;13.00;84.50;;;;;;5093401;28;20440;-68
2021/05/19 06:41:50;;;;;;;12.43;6.40;;;13.00;84.00;;;;;;5093408;28;20495;-68
2021/05/19 06:44:17;;;;;;;14.53;6.90;;;13.00;84.70;;;;;;5093094;28;20589;-68
2021/05/19 06:46:44;;;;;;;8.97;6.37;;;13.10;85.50;;;;;;5093141;28;20424;-68
2021/05/19 06:49:12;;;;;;;13.07;6.70;;;13.30;85.80;;;;;;5093268;28;20464;-68
2021/05/19 06:51:39;;;;;;;9.60;5.40;;;13.40;84.90;;;;;;5093257;28;20433;-68
2021/05/19 06:54:05;;;;;;;8.77;4.50;;;13.40;82.00;;;;;;5093197;28;20562;-69
2021/05/19 06:56:34;;;;;;;15.97;5.53;;;13.40;82.90;;;;;;5093286;28;20436;-68
2021/05/19 06:59:01;;;;;;;13.37;5.67;;;13.40;83.20;;;;;;5093738;28;20770;-68
2021/05/19 07:01:28;;;;;;;8.90;4.53;;;13.40;82.40;;;;;;5093434;28;20545;-68
2021/05/19 07:03:54;;;;;;;11.20;4.40;;;13.50;82.40;;;;;;5093029;28;20522;-68
2021/05/19 07:06:22;;;;;;;11.00;5.47;;;13.60;82.00;;;;;;5093150;28;20451;-68
2021/05/19 07:08:49;;;;;;;11.13;4.40;;;13.90;82.00;;;;;;5092701;28;20988;-68
2021/05/19 07:11:15;;;;;;;8.37;4.07;;;14.10;80.20;;;;;;5092989;28;20463;-68
2021/05/19 07:13:41;;;;;;;9.00;4.27;;;14.30;81.20;;;;;;5092928;28;20521;-68
2021/05/19 07:16:08;;;;;;;6.87;3.83;;;14.40;80.10;;;;;;5092611;28;20452;-68
2021/05/19 07:18:37;;;;;;;10.77;4.33;;;14.70;78.90;;;;;;5093735;28;20538;-68
2021/05/19 07:21:03;;;;;;;9.60;3.70;;;14.80;78.20;;;;;;5096649;28;20440;-68
2021/05/19 07:23:30;;;;;;;7.53;3.50;;;14.90;77.00;;;;;;5096473;28;20467;-68
2021/05/19 07:25:57;;;;;;;3.53;2.23;;;15.10;77.00;;;;;;5096524;28;20447;-68
2021/05/19 07:28:23;;;;;;;7.40;3.00;;;15.00;73.60;;;;;;5096440;28;20482;-68
2021/05/19 07:30:49;;;;;;;8.00;3.23;;;15.00;73.80;;;;;;5096523;28;20425;-68
2021/05/19 07:33:15;;;;;;;6.93;3.60;;;15.00;74.60;;;;;;5096270;28;20937;-68
2021/05/19 07:35:44;;;;;;;14.17;2.77;;;14.80;73.40;;;;;;5096210;28;20486;-69
2021/05/19 07:38:11;;;;;;;9.10;3.17;;;14.90;74.40;;;;;;5096418;28;20471;-69
2021/05/19 07:40:39;;;;;;;5.07;2.70;;;14.90;74.90;;;;;;5096000;28;20923;-69
2021/05/19 07:43:05;;;;;;;7.40;2.30;;;15.10;75.30;;;;;;5096954;28;20443;-69
2021/05/19 07:45:32;;;;;;;4.83;2.00;;;15.10;73.80;;;;;;5096162;28;20821;-69
2021/05/19 07:47:59;;;;;;;9.97;1.90;;;15.10;74.60;;;;;;5096187;28;20424;-69
2021/05/19 07:50:25;;;;;;;5.50;2.30;;;15.10;74.40;;;;;;5096219;28;20544;-69
2021/05/19 07:52:52;;;;;;;7.47;2.40;;;15.00;72.40;;;;;;5096041;28;20478;-68
2021/05/19 07:55:23;;;;;;;4.73;1.70;;;15.00;73.60;;;;;;5095718;28;20452;-68
2021/05/19 07:57:52;;;;;;;5.67;2.10;;;15.00;72.40;;;;;;5095941;28;20424;-68
2021/05/19 08:00:25;;;;;;;6.30;2.30;;;15.00;73.20;;;;;;5095562;28;21078;-70
2021/05/19 08:02:52;;;;;;;2.30;2.10;;;14.90;74.20;;;;;;5095891;28;20509;-68
2021/05/19 08:05:18;;;;;;;5.30;2.30;;;14.90;72.60;;;;;;5095705;28;20468;-68
2021/05/19 08:07:45;;;;;;;7.60;1.97;;;14.80;74.30;;;;;;5095722;28;20448;-69
2021/05/19 08:10:12;;;;;;;4.57;1.93;;;14.80;74.90;;;;;;5095620;28;20490;-69
2021/05/19 08:12:38;;;;;;;9.93;2.20;;;14.90;75.80;;;;;;5095669;28;20432;-68
2021/05/19 08:15:07;;;;;;;5.37;2.07;;;14.80;75.20;;;;;;5095144;28;20937;-68
2021/05/19 08:17:34;;;;;;;9.30;2.20;;;14.80;73.00;;;;;;5095639;28;20459;-68
2021/05/19 08:20:00;;;;;;;6.83;2.63;;;14.90;73.30;;;;;;5095445;28;20439;-68
2021/05/19 08:22:26;;;;;;;4.53;1.63;;;14.70;72.40;;;;;;5095115;28;20980;-68
2021/05/19 08:24:52;;;;;;;8.77;2.30;;;14.90;73.90;;;;;;5095316;28;20468;-68
2021/05/19 08:27:19;;;;;;;10.90;2.87;;;15.10;72.50;;;;;;5095097;28;20432;-68
2021/05/19 08:29:46;;;;;;;10.33;2.10;;;15.00;72.10;;;;;;5094297;28;20475;-68
2021/05/19 08:32:13;;;;;;;3.90;2.40;;;15.10;73.30;;;;;;5095823;28;20443;-68
2021/05/19 08:34:40;;;;;;;6.93;2.23;;;15.10;74.40;;;;;;5095101;28;20517;-68
2021/05/19 08:37:07;;;;;;;5.53;2.00;;;14.90;73.50;;;;;;5094917;28;20493;-68
2021/05/19 08:39:33;;;;;;;8.20;2.97;;;15.00;72.50;;;;;;5095388;28;20493;-68
2021/05/19 08:42:00;;;;;;;6.10;1.70;;;15.10;73.30;;;;;;5095825;28;20496;-69
2021/05/19 08:44:27;;;;;;;6.40;2.93;;;15.20;72.80;;;;;;5094769;28;20463;-68
2021/05/19 08:46:57;;;;;;;6.67;1.90;;;15.20;70.80;;;;;;5094907;28;20456;-68
2021/05/19 08:49:25;;;;;;;8.37;2.67;;;15.20;71.80;;;;;;5094960;28;20973;-68
2021/05/19 08:51:52;;;;;;;8.47;2.10;;;15.30;71.20;;;;;;5095051;28;20439;-68
2021/05/19 08:54:19;;;;;;;2.73;1.80;;;15.50;71.40;;;;;;5094640;28;20835;-68
2021/05/19 08:56:47;;;;;;;8.60;2.67;;;15.60;70.20;;;;;;5094733;28;20452;-68
2021/05/19 08:59:14;;;;;;;9.60;2.17;;;15.70;71.00;;;;;;5094980;28;20463;-69
2021/05/19 09:01:42;;;;;;;8.70;2.73;;;15.90;71.10;;;;;;5094827;28;20432;-69
2021/05/19 09:04:15;;;;;;;5.20;1.97;;;16.20;69.60;;;;;;5094257;28;21015;-69
2021/05/19 09:06:43;;;;;;;6.63;1.93;;;16.50;69.60;;;;;;5094757;28;20436;-69
2021/05/19 09:09:26;;;;;;;7.10;1.90;;;16.70;65.40;;;;;;5094653;28;20550;-69
2021/05/19 09:12:01;;;;;;;3.50;1.70;;;16.80;63.40;;;;;;5094656;28;20432;-69
2021/05/19 09:14:29;;;;;;;6.70;2.07;;;17.00;64.90;;;;;;5094321;28;20969;-69
2021/05/19 09:17:19;;;;;;;6.47;2.17;;;17.00;64.50;;;;;;5094073;28;20945;-69
2021/05/19 09:19:45;;;;;;;6.13;1.70;;;17.10;63.10;;;;;;5094394;28;20436;-69
2021/05/19 09:22:20;;;;;;;8.77;2.40;;;17.20;62.00;;;;;;5094444;28;20915;-69
2021/05/19 09:24:48;;;;;;;4.63;1.67;;;17.30;62.50;;;;;;5094387;28;20471;-69
2021/05/19 09:27:15;;;;;;;5.70;1.80;;;17.30;63.50;;;;;;5094243;28;20447;-69
2021/05/19 09:29:45;;;;;;;9.40;2.13;;;17.40;64.30;;;;;;5094196;28;20514;-69
2021/05/19 09:32:13;;;;;;;5.87;1.67;;;17.80;64.90;;;;;;5094298;28;20463;-69
2021/05/19 09:34:41;;;;;;;5.03;1.40;;;18.20;63.10;;;;;;5094071;28;20489;-69
2021/05/19 09:37:20;;;;;;;4.77;1.40;;;18.70;62.30;;;;;;5094345;28;20444;-69
2021/05/19 09:39:57;;;;;;;6.77;2.00;;;19.10;58.00;;;;;;5094328;28;20436;-69
2021/05/19 09:42:24;;;;;;;6.23;1.60;;;19.20;57.90;;;;;;5093349;28;20473;-69
2021/05/19 09:44:51;;;;;;;5.67;1.37;;;19.10;55.50;;;;;;5093559;28;20474;-69
2021/05/19 09:47:39;;;;;;;5.63;1.70;;;19.20;57.80;;;;;;5093956;28;20447;-69
2021/05/19 09:50:07;;;;;;;3.60;1.87;;;19.10;58.00;;;;;;5093811;28;20526;-68
2021/05/19 09:52:34;;;;;;;3.37;1.33;;;19.40;59.70;;;;;;5093896;28;20448;-68
2021/05/19 09:55:06;;;;;;;3.40;1.20;;;19.70;55.70;;;;;;5093767;28;20478;-69
2021/05/19 09:57:50;;;;;;;7.10;1.73;;;19.50;54.50;;;;;;5094139;28;20451;-69
2021/05/19 10:00:23;;;;;;;2.13;1.10;;;19.30;56.80;;;;;;5093466;28;20503;-69
2021/05/19 10:02:50;;;;;;;4.47;1.70;;;19.10;55.00;;;;;;5094562;28;20444;-69
2021/05/19 10:05:19;;;;;;;3.23;1.23;;;19.10;56.90;;;;;;5093660;28;20499;-69
2021/05/19 10:07:46;;;;;;;5.00;1.70;;;19.00;56.30;;;;;;5093683;28;20450;-69
2021/05/19 10:10:12;;;;;;;3.60;1.33;;;18.80;56.20;;;;;;5093589;28;20468;-69
2021/05/19 10:12:40;;;;;;;2.63;1.10;;;18.50;57.80;;;;;;5093616;28;20501;-69
2021/05/19 10:15:13;;;;;;;6.37;1.63;;;18.50;58.80;;;;;;5093206;28;20464;-69
2021/05/19 10:17:43;;;;;;;2.20;1.37;;;18.60;56.80;;;;;;5093926;28;20435;-69
2021/05/19 10:20:14;;;;;;;4.67;1.90;;;18.70;57.10;;;;;;5093747;28;20436;-69
2021/05/19 10:22:44;;;;;;;6.87;1.93;;;18.70;56.40;;;;;;5093606;28;20526;-69
2021/05/19 10:25:35;;;;;;;5.33;2.03;;;18.60;55.40;;;;;;5093224;28;20844;-69
2021/05/19 10:28:03;;;;;;;5.73;1.73;;;18.50;56.60;;;;;;5093329;28;21022;-69
2021/05/19 10:30:39;;;;;;;3.03;1.73;;;18.60;56.60;;;;;;5093456;28;20424;-69
2021/05/19 10:33:07;;;;;;;4.57;1.57;;;19.00;57.20;;;;;;5093462;28;20435;-69
2021/05/19 10:35:35;;;;;;;5.33;1.97;;;19.70;57.20;;;;;;5093327;28;20463;-69
2021/05/19 10:38:16;;;;;;;4.77;1.63;;;20.50;52.90;;;;;;5093045;28;20958;-69
2021/05/19 10:40:50;;;;;;;3.90;1.30;;;21.20;52.00;;;;;;5093093;28;20924;-69
2021/05/19 10:43:17;;;;;;;4.60;1.33;;;21.90;48.10;;;;;;5092968;28;20921;-69
2021/05/19 10:45:54;;;;;;;2.90;1.47;;;22.20;45.60;;;;;;5092974;28;20917;-69
2021/05/19 10:48:28;;;;;;;4.10;1.37;;;22.60;46.80;;;;;;5093299;28;20432;-69
2021/05/19 10:50:59;;;;;;;3.70;1.37;;;23.00;47.00;;;;;;5093329;28;20485;-69
2021/05/19 10:59:13;;;;;;;4.40;1.30;;;24.30;42.40;;;;;;5097381;28;20399;-69
2021/05/19 11:01:57;;;;;;;9.30;2.00;;;23.60;44.10;;;;;;5096943;28;20453;-69
2021/05/19 11:04:27;;;;;;;6.90;1.50;;;22.30;46.40;;;;;;5096771;28;20467;-69
2021/05/19 11:07:04;;;;;;;4.17;1.40;;;21.20;48.50;;;;;;5096604;28;20436;-69
2021/05/19 11:09:32;;;;;;;3.67;1.37;;;20.60;50.80;;;;;;5096524;28;20463;-69
2021/05/19 11:12:37;;;;;;;6.80;1.37;;;20.10;54.20;;;;;;5096503;28;20941;-69
2021/05/19 11:15:44;;;;;;;3.90;1.50;;;19.70;55.80;;;;;;5096624;28;20475;-69
2021/05/19 11:18:19;;;;;;;4.40;1.00;;;19.40;56.30;;;;;;5096694;28;20447;-69
2021/05/19 11:20:45;;;;;;;4.30;1.87;;;19.60;55.70;;;;;;5096647;28;20444;-69
2021/05/19 11:23:12;;;;;;;2.63;1.20;;;20.50;54.60;;;;;;5096593;28;20431;-69
2021/05/19 11:25:39;;;;;;;3.97;1.10;;;21.50;51.10;;;;;;5096265;28;20956;-69
2021/05/19 11:28:06;;;;;;;3.23;0.90;;;21.80;49.10;;;;;;5096469;28;20428;-69
2021/05/19 11:30:32;;;;;;;2.80;1.17;;;22.40;50.20;;;;;;5096467;28;20834;-69
2021/05/19 11:33:03;;;;;;;5.47;1.20;;;23.40;47.00;;;;;;5097087;28;20440;-69
2021/05/19 11:35:30;;;;;;;4.10;1.40;;;23.80;43.60;;;;;;5096343;28;20467;-69
2021/05/19 11:37:59;;;;;;;3.80;1.13;;;23.70;44.40;;;;;;5096038;28;20908;-69
2021/05/19 11:40:40;;;;;;;7.23;1.70;;;23.30;44.60;;;;;;5096268;28;20452;-69
2021/05/19 11:43:08;;;;;;;3.03;1.20;;;23.70;46.30;;;;;;5096270;28;20905;-69
2021/05/19 11:45:34;;;;;;;6.07;1.53;;;23.90;43.80;;;;;;5096076;28;20468;-69
2021/05/19 11:48:00;;;;;;;4.97;1.87;;;24.10;45.90;;;;;;5096175;28;20428;-69
2021/05/19 11:50:28;;;;;;;4.37;1.50;;;23.90;43.30;;;;;;5095677;28;20499;-69
2021/05/19 11:52:57;;;;;;;4.50;2.00;;;24.10;44.40;;;;;;5095695;28;20982;-69
2021/05/19 11:55:30;;;;;;;3.87;1.63;;;24.20;43.70;;;;;;5095891;28;20875;-69
2021/05/19 11:58:18;;;;;;;4.63;2.00;;;24.00;43.00;;;;;;5095897;28;20817;-69
2021/05/19 12:00:48;;;;;;;3.67;1.53;;;23.70;44.90;;;;;;5093629;28;20459;-69
2021/05/19 12:03:17;;;;;;;6.93;1.77;;;23.20;44.70;;;;;;5095635;28;20909;-69
2021/05/19 12:05:50;;;;;;;3.70;2.03;;;23.70;45.40;;;;;;5095755;28;20424;-69
2021/05/19 12:08:17;;;;;;;3.90;1.20;;;24.10;43.90;;;;;;5095334;28;20949;-69
2021/05/19 12:10:45;;;;;;;3.80;1.40;;;23.70;43.60;;;;;;5095732;28;20827;-69
2021/05/19 12:13:12;;;;;;;4.63;1.93;;;23.70;44.00;;;;;;5095693;28;20432;-69
2021/05/19 12:15:39;;;;;;;4.00;2.07;;;23.80;44.30;;;;;;5095157;28;20463;-69
2021/05/19 12:18:09;;;;;;;6.03;1.77;;;23.50;43.40;;;;;;5095093;28;21000;-69
2021/05/19 12:20:37;;;;;;;1.50;1.10;;;24.00;45.50;;;;;;5095374;28;20421;-69
2021/05/19 12:23:06;;;;;;;2.80;1.20;;;24.80;42.70;;;;;;5095179;28;20444;-70
2021/05/19 12:25:34;;;;;;;6.37;1.60;;;25.40;39.40;;;;;;5094956;28;21006;-69
2021/05/19 12:28:03;;;;;;;5.80;1.63;;;25.20;40.50;;;;;;5095521;28;20432;-69
2021/05/19 12:30:30;;;;;;;4.23;1.77;;;24.50;42.00;;;;;;5095318;28;20475;-69
2021/05/19 12:33:02;;;;;;;3.57;1.30;;;23.90;42.70;;;;;;5095270;28;20451;-69
2021/05/19 12:35:29;;;;;;;3.97;1.60;;;23.70;41.60;;;;;;5095017;28;20460;-70
2021/05/19 12:37:59;;;;;;;1.47;0.80;;;23.50;41.00;;;;;;5095648;28;20456;-69
2021/05/19 12:40:29;;;;;;;1.83;0.80;;;22.90;41.00;;;;;;5095357;28;20424;-69
2021/05/19 12:42:59;;;;;;;1.10;0.93;;;22.50;42.40;;;;;;5095136;28;20447;-69
2021/05/19 12:45:30;;;;;;;1.47;0.73;;;22.50;43.10;;;;;;5095325;28;20467;-69
2021/05/19 12:48:04;;;;;;;3.50;0.70;;;23.30;41.00;;;;;;5095137;28;20436;-69
2021/05/19 12:50:38;;;;;;;2.17;0.83;;;23.10;40.60;;;;;;5095548;28;20575;-69
2021/05/19 12:53:04;;;;;;;1.07;0.70;;;22.40;40.70;;;;;;5095167;28;20466;-69
2021/05/19 12:55:30;;;;;;;0.90;0.60;;;22.20;44.20;;;;;;5095195;28;20473;-69